createdAt,value
2023-03-10T00:02:11.446Z,18.54
2023-03-10T00:05:20.042Z,22.03
2023-03-10T00:08:27.181Z,26.21
2023-03-10T00:11:37.111Z,30.13
2023-03-10T00:14:43.502Z,29.88
2023-03-10T00:17:55.888Z,29.78
2023-03-10T00:21:01.982Z,25.73
2023-03-10T00:24:09.303Z,27.65
2023-03-10T00:27:17.883Z,26.74
2023-03-10T00:30:24.989Z,23.65
2023-03-10T00:33:31.062Z,15.84
2023-03-10T00:36:38.167Z,11.52
2023-03-10T00:39:44.138Z,10.21
2023-03-10T00:43:00.969Z,9.97
2023-03-10T00:46:08.137Z,9.20
2023-03-10T00:49:19.936Z,8.25
2023-03-10T00:52:25.856Z,7.65
2023-03-10T00:55:32.731Z,7.57
2023-03-10T00:58:42.059Z,6.86
2023-03-10T01:01:48.896Z,6.89
2023-03-10T01:04:55.291Z,6.87
2023-03-10T01:08:01.981Z,6.34
2023-03-10T01:11:08.419Z,6.67
2023-03-10T01:14:20.654Z,5.81
2023-03-10T01:17:27.785Z,5.53
2023-03-10T01:20:38.212Z,5.50
2023-03-10T01:23:44.169Z,6.18
2023-03-10T01:26:51.069Z,5.78
2023-03-10T01:29:59.777Z,5.41
2023-03-10T01:33:06.747Z,5.45
2023-03-10T01:36:16.150Z,5.63
2023-03-10T01:39:25.524Z,4.76
2023-03-10T01:42:31.567Z,4.16
2023-03-10T01:46:31.911Z,3.30
2023-03-10T01:49:48.479Z,4.10
2023-03-10T01:52:58.698Z,4.56
2023-03-10T01:56:09.740Z,6.40
2023-03-10T01:59:18.722Z,9.02
2023-03-10T02:02:25.373Z,10.50
2023-03-10T02:05:35.813Z,9.89
2023-03-10T02:08:48.654Z,8.66
2023-03-10T02:11:55.983Z,8.18
2023-03-10T02:15:02.336Z,8.26
2023-03-10T02:18:14.876Z,9.38
2023-03-10T02:21:46.215Z,9.64
2023-03-10T02:25:02.710Z,9.25
2023-03-10T02:28:12.097Z,8.58
2023-03-10T02:31:22.421Z,6.15
2023-03-10T02:34:31.547Z,4.74
2023-03-10T02:37:40.185Z,3.98
2023-03-10T02:40:50.978Z,4.01
2023-03-10T02:44:11.025Z,4.12
2023-03-10T02:47:17.375Z,4.02
2023-03-10T02:50:30.204Z,4.48
2023-03-10T02:53:36.236Z,4.44
2023-03-10T02:56:43.916Z,4.49
2023-03-10T02:59:53.379Z,4.92
2023-03-10T03:03:01.156Z,5.32
2023-03-10T03:06:08.600Z,5.70
2023-03-10T03:09:15.830Z,6.20
2023-03-10T03:12:23.238Z,6.40
2023-03-10T03:15:33.837Z,6.78
2023-03-10T03:18:41.468Z,6.50
2023-03-10T03:21:51.260Z,6.90
2023-03-10T03:24:57.342Z,6.66
2023-03-10T03:28:04.312Z,6.97
2023-03-10T03:31:18.762Z,7.64
2023-03-10T03:35:25.279Z,8.72
2023-03-10T03:38:32.950Z,9.07
2023-03-10T03:41:42.277Z,8.49
2023-03-10T03:44:50.124Z,8.48
2023-03-10T03:48:00.494Z,10.86
2023-03-10T03:51:09.548Z,12.01
2023-03-10T03:54:20.329Z,10.21
2023-03-10T03:57:29.342Z,8.28
2023-03-10T04:00:40.364Z,7.59
2023-03-10T04:03:51.507Z,7.93
2023-03-10T04:06:58.722Z,7.92
2023-03-10T04:10:05.490Z,7.74
2023-03-10T04:13:12.516Z,7.97
2023-03-10T04:16:18.718Z,8.89
2023-03-10T04:19:30.389Z,12.13
2023-03-10T04:22:45.133Z,14.41
2023-03-10T04:25:52.627Z,14.22
2023-03-10T04:28:59.741Z,13.02
2023-03-10T04:32:09.508Z,13.73
2023-03-10T04:35:22.172Z,14.68
2023-03-10T04:38:29.018Z,18.42
2023-03-10T04:41:35.201Z,19.69
2023-03-10T04:44:42.132Z,20.84
2023-03-10T04:47:48.116Z,20.49
2023-03-10T04:51:05.544Z,15.48
2023-03-10T04:54:16.139Z,15.62
2023-03-10T04:57:24.751Z,17.03
2023-03-10T05:00:32.448Z,18.45
2023-03-10T05:03:39.690Z,17.85
2023-03-10T05:06:54.070Z,17.69
2023-03-10T05:10:06.253Z,16.65
2023-03-10T05:13:13.147Z,17.75
2023-03-10T05:16:24.643Z,19.67
2023-03-10T05:19:32.592Z,21.32
2023-03-10T05:22:43.309Z,21.72
2023-03-10T05:25:52.696Z,20.34
2023-03-10T05:29:01.575Z,17.29
2023-03-10T05:32:17.599Z,21.51
2023-03-10T05:35:27.324Z,22.17
2023-03-10T05:38:39.518Z,19.07
2023-03-10T05:41:51.625Z,16.81
2023-03-10T05:44:58.506Z,23.75
2023-03-10T05:48:05.782Z,32.91
2023-03-10T05:51:15.494Z,30.44
2023-03-10T05:54:25.749Z,27.81
2023-03-10T05:57:32.189Z,27.94
2023-03-10T06:00:39.265Z,26.26
2023-03-10T06:03:52.211Z,16.75
2023-03-10T06:07:00.815Z,11.50
2023-03-10T06:10:30.114Z,8.30
2023-03-10T06:13:36.969Z,6.75
2023-03-10T06:16:45.134Z,6.50
2023-03-10T06:19:52.635Z,7.32
2023-03-10T06:22:59.121Z,8.32
2023-03-10T06:26:12.309Z,8.97
2023-03-10T06:29:18.196Z,9.69
2023-03-10T06:32:25.145Z,8.82
2023-03-10T06:35:32.404Z,8.64
2023-03-10T06:38:39.412Z,8.19
2023-03-10T06:41:48.040Z,8.47
2023-03-10T06:44:57.932Z,10.68
2023-03-10T06:48:03.740Z,11.21
2023-03-10T06:51:22.376Z,9.92
2023-03-10T06:54:28.701Z,9.70
2023-03-10T06:57:40.255Z,8.80
2023-03-10T07:00:49.454Z,9.70
2023-03-10T07:03:57.112Z,11.18
2023-03-10T07:07:15.229Z,10.27
2023-03-10T07:10:23.395Z,6.96
2023-03-10T07:13:31.897Z,6.56
2023-03-10T07:16:38.816Z,6.49
2023-03-10T07:19:47.865Z,7.04
2023-03-10T07:22:55.375Z,8.42
2023-03-10T07:26:01.618Z,7.55
2023-03-10T07:29:15.920Z,7.51
2023-03-10T07:32:21.754Z,7.61
2023-03-10T07:35:28.858Z,7.44
2023-03-10T07:38:35.832Z,6.46
2023-03-10T07:41:42.792Z,5.64
2023-03-10T07:44:53.648Z,5.49
2023-03-10T07:48:00.441Z,5.65
2023-03-10T07:51:06.806Z,5.55
2023-03-10T07:54:16.248Z,4.80
2023-03-10T07:57:22.241Z,5.39
2023-03-10T08:00:31.805Z,4.69
2023-03-10T08:03:38.392Z,4.40
2023-03-10T08:06:48.069Z,4.41
2023-03-10T08:09:54.592Z,4.30
2023-03-10T08:13:01.530Z,3.54
2023-03-10T08:16:11.873Z,3.18
2023-03-10T08:19:18.722Z,3.50
2023-03-10T08:22:24.601Z,4.05
2023-03-10T08:25:32.005Z,3.52
2023-03-10T08:28:39.060Z,3.88
2023-03-10T08:31:49.347Z,4.00
2023-03-10T08:34:55.252Z,3.17
2023-03-10T08:38:02.068Z,3.19
2023-03-10T08:41:21.422Z,3.56
2023-03-10T08:44:28.409Z,2.66
2023-03-10T08:47:37.183Z,3.03
2023-03-10T08:50:44.349Z,3.29
2023-03-10T08:53:56.349Z,2.85
2023-03-10T08:57:03.211Z,2.66
2023-03-10T09:00:14.847Z,3.06
2023-03-10T09:03:25.933Z,2.83
2023-03-10T09:06:33.688Z,3.39
2023-03-10T09:09:40.498Z,3.40
2023-03-10T09:12:46.430Z,2.95
2023-03-10T09:15:53.329Z,3.42
2023-03-10T09:19:08.320Z,3.39
2023-03-10T09:22:15.112Z,3.27
2023-03-10T09:25:21.068Z,3.06
2023-03-10T09:28:28.013Z,3.30
2023-03-10T09:31:38.437Z,3.38
2023-03-10T09:34:48.388Z,3.71
2023-03-10T09:37:54.286Z,3.98
2023-03-10T09:41:25.350Z,3.83
2023-03-10T09:44:43.650Z,3.85
2023-03-10T09:48:14.628Z,3.58
2023-03-10T09:51:28.732Z,4.01
2023-03-10T09:54:55.701Z,4.11
2023-03-10T09:58:03.978Z,3.95
2023-03-10T10:01:21.595Z,4.19
2023-03-10T10:04:40.903Z,4.25
2023-03-10T10:07:57.873Z,4.33
2023-03-10T10:11:06.537Z,4.46
2023-03-10T10:14:28.815Z,4.30
2023-03-10T10:18:02.934Z,4.37
2023-03-10T10:21:41.771Z,4.21
2023-03-10T10:25:19.195Z,4.23
2023-03-10T10:28:42.362Z,3.95
2023-03-10T10:32:09.083Z,4.35
2023-03-10T10:35:26.238Z,4.22
2023-03-10T10:38:36.330Z,3.84
2023-03-10T10:41:45.664Z,3.82
2023-03-10T10:44:55.776Z,4.40
2023-03-10T10:48:02.867Z,4.22
2023-03-10T10:51:27.461Z,4.25
2023-03-10T10:54:43.941Z,4.94
2023-03-10T10:58:01.715Z,5.78
2023-03-10T11:01:12.691Z,5.23
2023-03-10T11:04:18.793Z,4.48
2023-03-10T11:07:30.138Z,4.36
2023-03-10T11:10:38.300Z,5.28
2023-03-10T11:14:08.643Z,5.73
2023-03-10T11:17:25.505Z,8.04
2023-03-10T11:20:47.012Z,11.59
2023-03-10T11:24:12.658Z,14.98
2023-03-10T11:27:34.263Z,14.22
2023-03-10T11:30:58.408Z,12.59
2023-03-10T11:34:25.920Z,15.75
2023-03-10T11:37:45.869Z,8.61
2023-03-10T11:40:58.445Z,6.84
2023-03-10T11:44:24.169Z,6.16
2023-03-10T11:47:54.631Z,6.06
2023-03-10T11:51:04.469Z,6.41
2023-03-10T11:54:25.685Z,6.89
2023-03-10T11:57:42.806Z,8.14
2023-03-10T12:00:53.982Z,8.50
2023-03-10T12:04:19.442Z,7.94
2023-03-10T12:07:32.816Z,7.00
2023-03-10T12:10:45.568Z,9.38
2023-03-10T12:13:59.710Z,9.91
2023-03-10T12:17:08.643Z,10.10
2023-03-10T12:20:37.214Z,15.31
2023-03-10T12:23:45.834Z,10.26
2023-03-10T12:27:07.573Z,8.59
2023-03-10T12:30:51.339Z,9.48
2023-03-10T12:34:18.904Z,8.01
2023-03-10T12:37:28.379Z,8.89
2023-03-10T12:40:55.203Z,9.52
2023-03-10T12:44:03.472Z,10.49
2023-03-10T12:47:46.323Z,12.34
2023-03-10T12:51:03.118Z,10.53
2023-03-10T12:54:57.401Z,9.49
2023-03-10T12:58:25.584Z,10.33
2023-03-10T13:01:55.198Z,10.58
2023-03-10T13:05:08.351Z,15.38
2023-03-10T13:08:27.435Z,14.14
2023-03-10T13:11:44.150Z,15.58
2023-03-10T13:14:59.153Z,16.89
2023-03-10T13:18:22.620Z,14.47
2023-03-10T13:21:34.385Z,12.91
2023-03-10T13:24:42.532Z,18.09
2023-03-10T13:27:52.835Z,14.00
2023-03-10T13:31:26.538Z,10.99
2023-03-10T13:34:36.990Z,7.97
2023-03-10T13:37:42.927Z,7.74
2023-03-10T13:40:52.823Z,8.41
2023-03-10T13:44:01.663Z,7.68
2023-03-10T13:47:20.650Z,7.73
2023-03-10T13:50:28.196Z,8.99
2023-03-10T13:53:36.462Z,8.51
2023-03-10T13:56:46.477Z,6.40
2023-03-10T14:00:00.003Z,6.82
2023-03-10T14:03:06.670Z,7.48
2023-03-10T14:06:17.349Z,9.81
2023-03-10T14:09:26.286Z,7.03
2023-03-10T14:12:42.846Z,12.05
2023-03-10T14:15:59.252Z,12.34
2023-03-10T14:19:06.057Z,13.14
2023-03-10T14:22:32.324Z,16.02
2023-03-10T14:25:44.755Z,13.39
2023-03-10T14:28:50.671Z,16.65
2023-03-10T14:32:00.149Z,14.25
2023-03-10T14:35:11.888Z,15.60
2023-03-10T14:38:20.149Z,13.42
2023-03-10T14:41:28.544Z,11.50
2023-03-10T14:44:36.887Z,9.24
2023-03-10T14:47:45.841Z,14.27
2023-03-10T14:50:56.584Z,15.96
2023-03-10T14:54:03.026Z,13.38
2023-03-10T14:57:10.264Z,13.30
2023-03-10T15:00:21.642Z,11.12
2023-03-10T15:03:31.454Z,12.74
2023-03-10T15:06:37.786Z,12.37
2023-03-10T15:09:44.744Z,13.01
2023-03-10T15:12:54.116Z,13.23
2023-03-10T15:16:01.733Z,12.71
2023-03-10T15:19:15.389Z,9.47
2023-03-10T15:22:22.337Z,9.00
2023-03-10T15:25:28.711Z,8.45
2023-03-10T15:28:36.400Z,9.02
2023-03-10T15:31:43.517Z,10.44
2023-03-10T15:34:53.301Z,10.72
2023-03-10T15:38:02.875Z,10.43
2023-03-10T15:41:10.578Z,10.99
2023-03-10T15:44:16.724Z,10.00
2023-03-10T15:47:23.376Z,10.41
2023-03-10T15:50:31.966Z,12.09
2023-03-10T15:53:53.501Z,11.22
2023-03-10T15:56:59.503Z,15.07
2023-03-10T16:00:07.214Z,13.55
2023-03-10T16:03:18.029Z,12.15
2023-03-10T16:06:31.890Z,10.98
2023-03-10T16:09:37.924Z,11.47
2023-03-10T16:12:46.482Z,13.84
2023-03-10T16:15:52.997Z,11.15
2023-03-10T16:18:59.960Z,10.98
2023-03-10T16:22:10.659Z,11.67
2023-03-10T16:25:21.572Z,16.07
2023-03-10T16:28:27.641Z,16.11
2023-03-10T16:31:35.380Z,15.12
2023-03-10T16:34:41.511Z,17.19
2023-03-10T16:37:50.940Z,18.44
2023-03-10T16:40:58.146Z,19.28
2023-03-10T16:44:08.025Z,18.96
2023-03-10T16:47:15.725Z,24.66
2023-03-10T16:50:24.367Z,35.06
2023-03-10T16:53:33.033Z,38.41
2023-03-10T16:56:44.165Z,41.53
2023-03-10T16:59:56.472Z,35.46
2023-03-10T17:03:04.513Z,26.46
2023-03-10T17:06:13.516Z,17.96
2023-03-10T17:09:23.117Z,11.41
2023-03-10T17:12:29.203Z,11.74
2023-03-10T17:15:36.009Z,11.38
2023-03-10T17:18:42.149Z,13.72
2023-03-10T17:21:52.684Z,13.89
2023-03-10T17:25:02.182Z,12.90
2023-03-10T17:28:11.383Z,12.42
2023-03-10T17:31:20.907Z,12.51
2023-03-10T17:34:29.587Z,12.05
2023-03-10T17:37:35.631Z,14.10
2023-03-10T17:40:46.364Z,15.64
2023-03-10T17:43:53.044Z,13.96
2023-03-10T17:47:00.001Z,12.17
2023-03-10T17:50:06.774Z,11.46
2023-03-10T17:53:16.515Z,10.41
2023-03-10T17:56:25.209Z,9.56
2023-03-10T17:59:33.016Z,12.17
2023-03-10T18:02:39.042Z,16.14
2023-03-10T18:05:47.841Z,19.22
2023-03-10T18:08:56.464Z,22.26
2023-03-10T18:12:06.461Z,20.48
2023-03-10T18:15:15.359Z,23.33
2023-03-10T18:18:22.242Z,25.17
2023-03-10T18:21:29.828Z,21.64
2023-03-10T18:24:36.677Z,19.50
2023-03-10T18:27:46.115Z,18.05
2023-03-10T18:30:55.013Z,20.49
2023-03-10T18:34:01.340Z,18.08
2023-03-10T18:37:08.390Z,16.98
2023-03-10T18:40:19.740Z,16.22
2023-03-10T18:43:32.315Z,17.77
2023-03-10T18:46:38.409Z,19.03
2023-03-10T18:49:45.574Z,29.75
2023-03-10T18:52:51.633Z,22.02
2023-03-10T18:56:03.156Z,15.47
2023-03-10T18:59:13.498Z,15.96
2023-03-10T19:02:20.619Z,16.31
2023-03-10T19:05:26.677Z,15.75
2023-03-10T19:08:34.542Z,17.69
2023-03-10T19:11:41.822Z,17.88
2023-03-10T19:14:51.326Z,20.73
2023-03-10T19:17:59.006Z,16.85
2023-03-10T19:21:09.764Z,19.54
2023-03-10T19:24:15.826Z,24.58
2023-03-10T19:27:22.852Z,24.61
2023-03-10T19:30:32.041Z,22.07
2023-03-10T19:33:40.006Z,19.27
2023-03-10T19:36:46.126Z,20.37
2023-03-10T19:39:53.157Z,25.16
2023-03-10T19:42:59.959Z,21.72
2023-03-10T19:46:12.927Z,20.36
2023-03-10T19:49:19.385Z,17.05
2023-03-10T19:52:26.859Z,16.74
2023-03-10T19:55:33.353Z,17.02
2023-03-10T19:58:40.772Z,17.90
2023-03-10T20:01:49.753Z,20.25
2023-03-10T20:04:56.738Z,20.63
2023-03-10T20:08:02.959Z,22.23
2023-03-10T20:11:13.739Z,24.13
2023-03-10T20:14:19.952Z,21.39
2023-03-10T20:17:30.823Z,26.77
2023-03-10T20:20:37.423Z,23.99
2023-03-10T20:23:47.780Z,22.93
2023-03-10T20:26:53.879Z,21.01
2023-03-10T20:30:00.865Z,23.87
2023-03-10T20:33:11.915Z,25.28
2023-03-10T20:36:18.933Z,24.13
2023-03-10T20:39:24.951Z,21.93
2023-03-10T20:42:31.878Z,18.39
2023-03-10T20:45:39.009Z,17.61
2023-03-10T20:48:48.876Z,17.29
2023-03-10T20:51:55.141Z,16.97
2023-03-10T20:55:02.200Z,14.84
2023-03-10T20:58:09.173Z,15.92
2023-03-10T21:01:19.704Z,16.14
2023-03-10T21:04:28.557Z,15.76
2023-03-10T21:07:35.947Z,15.65
2023-03-10T21:10:44.983Z,15.52
2023-03-10T21:13:53.189Z,15.70
2023-03-10T21:17:00.241Z,15.39
2023-03-10T21:20:13.760Z,15.20
2023-03-10T21:23:19.857Z,15.55
2023-03-10T21:26:27.211Z,14.18
2023-03-10T21:29:33.337Z,13.11
2023-03-10T21:32:41.161Z,12.11
2023-03-10T21:35:49.921Z,11.89
2023-03-10T21:38:57.131Z,11.72
2023-03-10T21:42:03.311Z,12.02
2023-03-10T21:45:14.643Z,12.18
2023-03-10T21:48:20.772Z,14.31
2023-03-10T21:51:33.813Z,15.63
2023-03-10T21:54:40.181Z,15.37
2023-03-10T21:57:46.963Z,14.79
2023-03-10T22:00:56.054Z,16.28
2023-03-10T22:04:03.046Z,16.00
2023-03-10T22:07:11.684Z,14.93
2023-03-10T22:10:19.891Z,14.71
2023-03-10T22:13:25.936Z,14.48
2023-03-10T22:16:33.128Z,14.05
2023-03-10T22:19:39.209Z,13.68
2023-03-10T22:22:48.788Z,13.32
2023-03-10T22:25:54.817Z,13.39
2023-03-10T22:29:01.616Z,14.21
2023-03-10T22:32:08.958Z,15.03
2023-03-10T22:35:16.720Z,14.47
2023-03-10T22:38:25.595Z,15.75
2023-03-10T22:41:32.312Z,16.87
2023-03-10T22:44:39.954Z,15.86
2023-03-10T22:47:47.046Z,16.11
2023-03-10T22:50:53.403Z,16.24
2023-03-10T22:54:03.265Z,15.98
2023-03-10T22:57:09.939Z,16.36
2023-03-10T23:00:22.606Z,17.02
2023-03-10T23:03:28.757Z,18.08
2023-03-10T23:06:36.248Z,17.76
2023-03-10T23:09:46.208Z,18.65
2023-03-10T23:12:54.733Z,18.71
2023-03-10T23:16:01.178Z,18.45
2023-03-10T23:19:08.961Z,18.94
2023-03-10T23:22:14.777Z,19.37
2023-03-10T23:25:27.615Z,20.97
2023-03-10T23:28:33.712Z,24.27
2023-03-10T23:31:40.561Z,26.82
2023-03-10T23:34:46.741Z,29.40
2023-03-10T23:37:54.266Z,26.95
2023-03-10T23:41:02.832Z,21.10
2023-03-10T23:44:09.983Z,21.31
2023-03-10T23:47:18.791Z,21.66
2023-03-10T23:50:30.302Z,18.60
2023-03-10T23:53:36.399Z,16.81
2023-03-10T23:56:45.835Z,18.64
2023-03-10T23:59:52.042Z,17.67
